グアダラハラ の空港の天気 - METARとTAF

ドン・ミゲル・イダルゴ・イ・コスティージャ国際空港 ( MMGL / GDL ) - メキシコ ハリスコ州グアダラハラ
飛行場実況気象(Metar)
観測時間08/13 16:42 CDT (08/13 21:42 UTC)
風向・風速静穏 0m/s
視程10km以上
天気現象
全天の4割程度の雲 雲底高度 910m
全天の8割程度の雲 雲底高度 9140m
気温28℃
湿度40%
気圧1020hPa
METARMMGL 132142Z 00000KT 8SM SCT030CB BKN300 28/13 A3013 RMK 8/303
過去の天気等 Google飛行場航空写真 Wunderground天気予報

過去48時間のMETAR

飛行場予報(TAF)
発表時間: 8/13 11:24 CDT (8/13 16:24 UTC)
予報対象時間: 13日13時 CDT ~ 14日19時 CDT
風向・風速北北西 5m/s
視程10km以上
全天の4割程度の雲 雲底高度 910m
全天の8割程度の雲 雲底高度 7620m
14日1時 CDT から
風向・風速北北西 3m/s
視程10km以上
全天の8割程度の雲 雲底高度 910m
全天を覆う雲 雲底高度 2440m
14日1時 CDT ~ 14日5時 CDT に一時的に
視程8050m
天気現象雷雨
全天の8割程度の積乱雲 雲底高度 910m
14日7時 CDT から
風向・風速静穏
視程8050m
天気現象煙霧
全天の4割程度の雲 雲底高度 910m
全天の8割程度の雲 雲底高度 7620m
14日13時 CDT から
風向・風速西 4m/s
視程10km以上
全天の8割程度の雲 雲底高度 910m
全天の8割程度の雲 雲底高度 2440m
全天の8割程度の雲 雲底高度 7620m
14日17時 CDT から 確率 40% で
視程10km以上
天気現象弱い雨
全天の8割程度の積乱雲 雲底高度 910m
TAF MMGL 131624Z 1318/1424 34010KT P6SM SCT030 BKN250 TX27/1321Z TN17/1412Z
FM140600 34005KT P6SM BKN030 OVC080
TEMPO 1406/1410 5SM TSRA BKN030CB
FM141200 00000KT 5SM HZ SCT030 BKN250
FM141800 28008KT P6SM BKN030 BKN080 BKN250
PROB40 1422/1424 6SM -RA BKN030CB